Time;durP1;ratioP1;P1;durP2;ratioP2;P2;SDS_P1;SDS_P2;PMS_P1;PMS_P2;Temp;Humidity;BMP_temperature;BMP_pressure;BME280_temperature;BME280_humidity;BME280_pressure;Samples;Min_cycle;Max_cycle;Signal;HPM_P1;HPM_P2
2021/09/16 00:01:59;;;;;;;108.30;50.53;;;14.80;99.90;;;;;;5078264;28;20447;-76
2021/09/16 00:04:27;;;;;;;109.18;51.05;;;14.80;99.90;;;;;;5078078;28;20053;-75
2021/09/16 00:06:54;;;;;;;115.57;53.03;;;14.80;99.90;;;;;;5078888;28;20058;-75
2021/09/16 00:09:21;;;;;;;119.53;53.08;;;14.90;99.90;;;;;;5077338;28;20044;-76
2021/09/16 00:11:48;;;;;;;122.78;56.22;;;14.80;99.90;;;;;;5074316;28;20040;-75
2021/09/16 00:14:15;;;;;;;125.10;55.90;;;14.90;99.90;;;;;;5075351;28;20067;-76
2021/09/16 00:16:42;;;;;;;121.63;55.75;;;14.90;99.90;;;;;;5078597;28;20044;-75
2021/09/16 00:19:09;;;;;;;112.75;53.13;;;14.90;99.90;;;;;;5078000;28;20057;-76
2021/09/16 00:21:36;;;;;;;104.10;50.67;;;14.90;99.90;;;;;;5078418;28;20047;-76
2021/09/16 00:24:04;;;;;;;105.50;50.45;;;14.90;99.90;;;;;;5074221;28;20043;-76
2021/09/16 00:26:31;;;;;;;100.68;51.50;;;14.90;99.90;;;;;;5087129;28;20052;-76
2021/09/16 00:28:58;;;;;;;111.70;52.15;;;14.90;99.90;;;;;;5086216;28;20040;-76
2021/09/16 00:31:25;;;;;;;110.78;53.63;;;14.80;99.90;;;;;;5072692;28;20055;-75
2021/09/16 00:33:52;;;;;;;112.68;53.85;;;14.80;99.90;;;;;;5086626;28;20118;-76
2021/09/16 00:36:18;;;;;;;112.13;52.97;;;14.80;99.90;;;;;;5076789;28;20105;-75
2021/09/16 00:38:45;;;;;;;108.45;50.75;;;14.80;99.90;;;;;;5073917;28;20105;-76
2021/09/16 00:41:12;;;;;;;97.50;48.53;;;14.80;99.90;;;;;;5075329;28;20044;-76
2021/09/16 00:43:39;;;;;;;90.13;46.47;;;14.80;99.90;;;;;;5078385;28;20045;-76
2021/09/16 00:46:07;;;;;;;85.63;44.75;;;14.80;99.90;;;;;;5078445;28;20097;-76
2021/09/16 00:48:34;;;;;;;89.57;45.70;;;14.80;99.90;;;;;;5088963;28;20052;-76
2021/09/16 00:51:01;;;;;;;89.75;46.40;;;14.80;99.90;;;;;;5074900;28;20135;-75
2021/09/16 00:53:30;;;;;;;90.40;45.83;;;14.80;99.90;;;;;;5073550;28;20098;-76
2021/09/16 00:55:57;;;;;;;;;;;14.80;99.90;;;;;;5078461;28;20486;-76
2021/09/16 00:58:25;;;;;;;95.20;48.38;;;14.80;99.90;;;;;;5072163;28;19980;-76
2021/09/16 01:00:55;;;;;;;92.28;47.90;;;14.80;99.90;;;;;;5078031;28;20041;-76
2021/09/16 01:03:24;;;;;;;86.88;45.88;;;14.80;99.90;;;;;;5073581;28;20052;-76
2021/09/16 01:05:51;;;;;;;92.13;47.72;;;14.80;99.90;;;;;;5089588;28;20130;-76
2021/09/16 01:08:19;;;;;;;86.65;45.78;;;14.80;99.90;;;;;;5074400;28;20051;-76
2021/09/16 01:10:46;;;;;;;83.03;43.95;;;14.80;99.90;;;;;;5078135;28;20388;-76
2021/09/16 01:13:15;;;;;;;77.60;43.28;;;14.80;99.90;;;;;;5077569;28;20447;-76
2021/09/16 01:15:45;;;;;;;76.07;41.88;;;14.80;99.90;;;;;;5078019;28;20052;-76
2021/09/16 01:18:13;;;;;;;67.28;40.13;;;14.80;99.90;;;;;;5075537;28;20047;-75
2021/09/16 01:20:40;;;;;;;73.53;41.08;;;14.80;99.90;;;;;;5073328;28;20048;-76
2021/09/16 01:23:07;;;;;;;72.97;40.65;;;14.90;99.90;;;;;;5073924;28;20045;-76
2021/09/16 01:25:34;;;;;;;70.97;39.50;;;14.90;99.90;;;;;;5079514;28;20075;-76
2021/09/16 01:28:02;;;;;;;68.32;38.40;;;14.90;99.90;;;;;;5078156;28;20051;-76
2021/09/16 01:30:29;;;;;;;71.10;36.88;;;14.90;99.90;;;;;;5077568;28;20105;-76
2021/09/16 01:32:57;;;;;;;58.92;35.50;;;14.90;99.90;;;;;;5073701;28;20090;-76
2021/09/16 01:35:25;;;;;;;64.10;37.83;;;14.90;99.90;;;;;;5073945;28;20502;-76
2021/09/16 01:37:53;;;;;;;72.70;41.03;;;14.90;99.90;;;;;;5106630;28;20044;-76
2021/09/16 01:40:20;;;;;;;72.60;39.05;;;14.90;99.90;;;;;;5080576;28;20045;-75
2021/09/16 01:42:48;;;;;;;71.18;39.40;;;14.90;99.90;;;;;;5079772;28;20053;-75
2021/09/16 01:45:18;;;;;;;68.72;39.03;;;14.90;99.90;;;;;;5089579;28;20040;-76
2021/09/16 01:47:47;;;;;;;68.07;38.33;;;14.90;99.90;;;;;;5091917;28;20388;-76
2021/09/16 01:50:16;;;;;;;61.08;37.22;;;15.00;99.90;;;;;;5078130;28;20171;-76
2021/09/16 01:52:43;;;;;;;67.10;38.28;;;15.00;99.90;;;;;;5081096;28;20090;-76
2021/09/16 01:55:11;;;;;;;65.63;37.60;;;15.00;99.90;;;;;;5080403;28;20075;-76
2021/09/16 01:57:38;;;;;;;60.38;35.90;;;15.00;99.90;;;;;;5081137;28;20064;-76
2021/09/16 02:00:07;;;;;;;60.00;36.17;;;15.00;99.90;;;;;;5077906;28;20401;-76
2021/09/16 02:02:34;;;;;;;58.17;35.67;;;15.00;99.90;;;;;;5076286;28;20040;-76
2021/09/16 02:05:01;;;;;;;58.65;35.08;;;15.00;99.90;;;;;;5080114;28;20055;-75
2021/09/16 02:07:28;;;;;;;54.53;33.65;;;15.00;99.90;;;;;;5080227;28;20048;-76
2021/09/16 02:09:56;;;;;;;53.38;33.42;;;15.00;99.90;;;;;;5081143;28;20385;-75
2021/09/16 02:12:23;;;;;;;57.15;35.08;;;15.00;99.90;;;;;;5079437;28;20043;-75
2021/09/16 02:14:50;;;;;;;64.95;37.60;;;15.00;99.90;;;;;;5076316;28;20048;-75
2021/09/16 02:17:17;;;;;;;66.82;37.20;;;15.00;99.90;;;;;;5076993;28;20044;-76
2021/09/16 02:19:44;;;;;;;67.50;38.30;;;15.00;99.90;;;;;;5080539;28;20044;-75
2021/09/16 02:22:11;;;;;;;68.65;38.20;;;15.00;99.90;;;;;;5082638;28;20048;-75
2021/09/16 02:24:38;;;;;;;68.57;38.45;;;14.90;99.90;;;;;;5090622;28;20384;-75
2021/09/16 02:27:05;;;;;;;65.60;38.15;;;14.90;99.90;;;;;;5076589;28;20407;-76
2021/09/16 02:29:32;;;;;;;62.40;36.25;;;14.90;99.90;;;;;;5076208;28;20040;-76
2021/09/16 02:31:59;;;;;;;60.50;35.65;;;14.90;99.90;;;;;;5087182;28;20400;-76
2021/09/16 02:34:26;;;;;;;56.58;34.30;;;14.90;99.90;;;;;;5083217;28;20051;-75
2021/09/16 02:36:53;;;;;;;48.10;30.15;;;14.90;99.90;;;;;;5080276;28;20583;-75
2021/09/16 02:39:20;;;;;;;60.22;34.13;;;14.90;99.90;;;;;;5078399;28;20057;-76
2021/09/16 02:41:47;;;;;;;54.33;30.25;;;14.90;99.90;;;;;;5075616;28;20503;-75
2021/09/16 02:44:14;;;;;;;44.45;27.63;;;14.90;99.90;;;;;;5077038;28;20040;-76
2021/09/16 02:46:41;;;;;;;45.55;26.50;;;15.00;99.90;;;;;;5085382;28;20048;-76
2021/09/16 02:49:08;;;;;;;46.78;27.52;;;15.00;99.90;;;;;;5086476;28;20043;-76
2021/09/16 02:51:35;;;;;;;38.35;22.60;;;15.10;99.90;;;;;;5090544;28;20469;-75
2021/09/16 02:54:01;;;;;;;33.60;22.63;;;15.10;99.90;;;;;;5076260;28;20055;-76
2021/09/16 02:56:29;;;;;;;32.60;22.33;;;15.20;99.90;;;;;;5075146;28;20041;-75
2021/09/16 02:58:55;;;;;;;40.90;23.10;;;15.20;99.90;;;;;;5079857;28;20045;-76
2021/09/16 03:01:22;;;;;;;44.72;25.20;;;15.30;99.90;;;;;;5082503;28;20097;-75
2021/09/16 03:03:49;;;;;;;43.80;25.48;;;15.30;99.90;;;;;;5088375;28;20062;-75
2021/09/16 03:06:16;;;;;;;43.05;24.33;;;15.30;99.90;;;;;;5077488;28;20727;-76
2021/09/16 03:08:43;;;;;;;42.65;25.20;;;15.30;99.90;;;;;;5075401;28;20048;-75
2021/09/16 03:11:10;;;;;;;38.75;24.95;;;15.30;99.90;;;;;;5076849;28;20102;-76
2021/09/16 03:13:37;;;;;;;36.88;22.58;;;15.30;99.90;;;;;;5079705;28;20071;-76
2021/09/16 03:16:04;;;;;;;38.50;23.08;;;15.30;99.90;;;;;;5079592;28;20384;-76
2021/09/16 03:18:31;;;;;;;36.47;23.00;;;15.30;99.90;;;;;;5073758;28;20537;-76
2021/09/16 03:20:58;;;;;;;41.33;22.92;;;15.40;99.90;;;;;;5090525;28;20048;-76
2021/09/16 03:23:25;;;;;;;43.63;24.13;;;15.30;99.90;;;;;;5087527;28;20422;-76
2021/09/16 03:25:52;;;;;;;38.70;23.55;;;15.40;99.90;;;;;;5086700;28;20070;-76
2021/09/16 03:28:19;;;;;;;36.17;23.17;;;15.30;99.90;;;;;;5085942;28;20047;-76
2021/09/16 03:30:46;;;;;;;38.33;22.33;;;15.40;99.90;;;;;;5088415;28;20048;-75
2021/09/16 03:33:13;;;;;;;38.85;22.95;;;15.30;99.90;;;;;;5076640;28;20568;-76
2021/09/16 03:35:40;;;;;;;37.63;22.92;;;15.40;99.90;;;;;;5074793;28;20309;-76
2021/09/16 03:38:07;;;;;;;39.22;23.15;;;15.40;99.90;;;;;;5075344;28;20044;-76
2021/09/16 03:40:34;;;;;;;38.97;24.88;;;15.40;99.90;;;;;;5084049;28;20044;-75
2021/09/16 03:43:01;;;;;;;41.70;25.20;;;15.40;99.90;;;;;;5085905;28;20045;-76
2021/09/16 03:45:28;;;;;;;42.38;24.35;;;15.30;99.90;;;;;;5073888;28;20048;-76
2021/09/16 03:47:55;;;;;;;45.75;27.83;;;15.30;99.90;;;;;;5074884;28;20044;-76
2021/09/16 03:50:23;;;;;;;50.03;29.02;;;15.30;99.90;;;;;;5058326;28;20086;-76
2021/09/16 03:52:49;;;;;;;42.15;26.80;;;15.30;99.90;;;;;;5079050;28;20044;-75
2021/09/16 03:55:16;;;;;;;42.10;26.48;;;15.20;99.90;;;;;;5072502;28;20047;-76
2021/09/16 03:57:43;;;;;;;47.47;27.48;;;15.20;99.90;;;;;;5079023;28;20052;-76
2021/09/16 04:00:11;;;;;;;53.17;30.65;;;15.20;99.90;;;;;;5075229;28;20416;-75
2021/09/16 04:02:39;;;;;;;48.80;28.40;;;15.20;99.90;;;;;;5074550;28;20048;-75
2021/09/16 04:05:06;;;;;;;39.85;24.67;;;15.10;99.90;;;;;;5074758;28;20045;-76
2021/09/16 04:07:33;;;;;;;35.90;22.23;;;15.10;99.90;;;;;;5078947;28;20063;-75
2021/09/16 04:10:01;;;;;;;46.55;25.30;;;15.10;99.90;;;;;;5078946;28;20147;-76
2021/09/16 04:12:28;;;;;;;53.22;27.95;;;15.10;99.90;;;;;;5077797;28;20404;-76
2021/09/16 04:14:55;;;;;;;58.17;29.58;;;15.10;99.90;;;;;;5074448;28;20036;-76
2021/09/16 04:17:22;;;;;;;55.47;29.25;;;15.10;99.90;;;;;;5091673;28;20408;-76
2021/09/16 04:19:49;;;;;;;56.92;30.55;;;15.10;99.90;;;;;;5078884;28;20489;-76
2021/09/16 04:22:16;;;;;;;54.97;29.30;;;15.10;99.90;;;;;;5077790;28;20068;-76
2021/09/16 04:24:44;;;;;;;55.42;30.05;;;15.10;99.90;;;;;;5078470;28;20052;-76
2021/09/16 04:27:13;;;;;;;59.17;30.70;;;15.10;99.90;;;;;;5075761;28;20044;-75
2021/09/16 04:29:40;;;;;;;;;;;15.10;99.90;;;;;;5075487;28;20044;-76
2021/09/16 04:32:08;;;;;;;57.90;30.33;;;15.10;99.90;;;;;;5076383;28;20356;-76
2021/09/16 04:34:35;;;;;;;60.67;30.95;;;15.10;99.90;;;;;;5078650;28;20044;-75
2021/09/16 04:37:08;;;;;;;57.47;31.63;;;15.10;99.90;;;;;;5078411;28;20067;-79
2021/09/16 04:39:38;;;;;;;58.90;30.63;;;15.10;99.90;;;;;;5073869;28;20044;-76
2021/09/16 04:42:06;;;;;;;58.33;29.52;;;15.10;99.90;;;;;;5087953;28;20044;-76
2021/09/16 04:44:33;;;;;;;50.58;28.70;;;15.10;99.90;;;;;;5087203;28;20365;-77
2021/09/16 04:47:01;;;;;;;54.45;28.85;;;15.10;99.90;;;;;;5087852;28;20048;-76
2021/09/16 04:49:28;;;;;;;50.13;28.55;;;15.20;99.90;;;;;;5080567;28;20040;-77
2021/09/16 04:51:55;;;;;;;57.67;30.02;;;15.20;99.90;;;;;;5078282;28;20361;-77
2021/09/16 04:54:22;;;;;;;53.72;30.13;;;15.20;99.90;;;;;;5076964;28;20044;-75
2021/09/16 04:56:49;;;;;;;51.78;27.52;;;15.20;99.90;;;;;;5073706;28;20051;-76
2021/09/16 04:59:16;;;;;;;48.60;28.17;;;15.20;99.90;;;;;;5085499;28;20490;-76
2021/09/16 05:01:43;;;;;;;50.80;28.48;;;15.20;99.90;;;;;;5078964;28;20048;-77
2021/09/16 05:04:10;;;;;;;53.65;28.27;;;15.20;99.90;;;;;;5077334;28;20044;-76
2021/09/16 05:06:38;;;;;;;50.45;26.63;;;15.20;99.90;;;;;;5078464;28;20050;-76
2021/09/16 05:09:05;;;;;;;51.00;26.73;;;15.20;99.90;;;;;;5074387;28;20044;-76
2021/09/16 05:11:39;;;;;;;51.85;28.42;;;15.20;99.90;;;;;;5076014;28;20055;-76
2021/09/16 05:14:06;;;;;;;49.08;26.98;;;15.20;99.90;;;;;;5091620;28;20052;-76
2021/09/16 05:16:34;;;;;;;49.20;27.13;;;15.20;99.90;;;;;;5084082;28;20052;-76
2021/09/16 05:19:01;;;;;;;56.70;29.25;;;15.20;99.90;;;;;;5081607;28;20045;-76
2021/09/16 05:21:28;;;;;;;57.65;29.80;;;15.20;99.90;;;;;;5080600;28;20053;-76
2021/09/16 05:23:55;;;;;;;56.25;29.23;;;15.20;99.90;;;;;;5077578;28;20476;-76
2021/09/16 05:26:22;;;;;;;57.30;29.35;;;15.10;99.90;;;;;;5077242;28;20048;-76
2021/09/16 05:28:50;;;;;;;62.50;29.77;;;15.10;99.90;;;;;;5082019;28;20045;-76
2021/09/16 05:31:17;;;;;;;64.80;28.15;;;15.10;99.90;;;;;;5080939;28;20048;-76
2021/09/16 05:33:44;;;;;;;52.85;27.67;;;15.10;99.90;;;;;;5081540;28;20044;-76
2021/09/16 05:36:11;;;;;;;57.10;27.45;;;15.00;99.90;;;;;;5076509;28;20040;-76
2021/09/16 05:38:38;;;;;;;58.17;27.55;;;15.00;99.90;;;;;;5091287;28;20051;-75
2021/09/16 05:41:05;;;;;;;59.10;27.20;;;15.00;99.90;;;;;;5088284;28;20040;-76
2021/09/16 05:43:31;;;;;;;51.28;26.50;;;14.90;99.90;;;;;;5083918;28;20052;-76
2021/09/16 05:45:59;;;;;;;57.17;26.92;;;14.90;99.90;;;;;;5081153;28;20044;-76
2021/09/16 05:48:26;;;;;;;49.72;24.33;;;14.90;99.90;;;;;;5091973;28;20059;-76
2021/09/16 05:50:53;;;;;;;51.42;24.35;;;14.90;99.90;;;;;;5076934;28;20391;-76
2021/09/16 05:53:20;;;;;;;53.38;25.38;;;14.80;99.90;;;;;;5088402;28;20041;-76
2021/09/16 05:55:47;;;;;;;46.13;24.50;;;14.80;99.90;;;;;;5081406;28;20045;-75
2021/09/16 05:58:14;;;;;;;50.13;23.80;;;14.80;99.90;;;;;;5081720;28;20040;-76
2021/09/16 06:00:41;;;;;;;44.95;25.00;;;14.80;99.90;;;;;;5083439;28;20060;-76
2021/09/16 06:03:08;;;;;;;45.50;23.65;;;14.70;99.90;;;;;;5078122;28;20143;-76
2021/09/16 06:05:35;;;;;;;45.53;24.00;;;14.70;99.90;;;;;;5076830;28;20055;-76
2021/09/16 06:08:02;;;;;;;42.92;23.00;;;14.70;99.90;;;;;;5079990;28;20055;-76
2021/09/16 06:10:29;;;;;;;47.42;23.23;;;14.60;99.90;;;;;;5083633;28;20044;-76
2021/09/16 06:12:56;;;;;;;44.45;21.13;;;14.60;99.90;;;;;;5086618;28;20047;-76
2021/09/16 06:15:24;;;;;;;43.90;21.08;;;14.60;99.90;;;;;;5090917;28;20042;-76
2021/09/16 06:17:51;;;;;;;48.80;21.83;;;14.60;99.90;;;;;;5090083;28;20044;-76
2021/09/16 06:20:18;;;;;;;43.72;21.88;;;14.60;99.90;;;;;;5084447;28;20106;-76
2021/09/16 06:22:46;;;;;;;43.35;21.08;;;14.60;99.90;;;;;;5079401;28;20049;-76
2021/09/16 06:25:15;;;;;;;36.05;19.65;;;14.50;99.90;;;;;;5079640;28;20044;-75
2021/09/16 06:27:43;;;;;;;42.67;20.50;;;14.50;99.90;;;;;;5081719;28;20176;-76
2021/09/16 06:30:11;;;;;;;52.75;22.30;;;14.50;99.90;;;;;;5077763;28;20418;-76
2021/09/16 06:32:38;;;;;;;47.33;21.77;;;14.50;99.90;;;;;;5076071;28;20048;-76
2021/09/16 06:35:06;;;;;;;36.88;20.25;;;14.50;99.90;;;;;;5076418;28;20049;-77
2021/09/16 06:37:34;;;;;;;43.97;20.67;;;14.50;99.90;;;;;;5080363;28;20052;-76
2021/09/16 06:40:02;;;;;;;38.75;19.88;;;14.60;99.90;;;;;;5080194;28;20040;-76
2021/09/16 06:42:29;;;;;;;45.63;20.83;;;14.60;99.90;;;;;;5079612;28;20051;-76
2021/09/16 06:44:56;;;;;;;33.38;18.92;;;14.60;99.90;;;;;;5075313;28;20491;-76
2021/09/16 06:47:23;;;;;;;32.53;18.38;;;14.70;99.90;;;;;;5087871;28;20048;-77
2021/09/16 06:49:50;;;;;;;33.67;18.48;;;14.70;99.90;;;;;;5080295;28;20377;-77
2021/09/16 06:52:22;;;;;;;38.70;19.08;;;14.70;99.90;;;;;;5080751;28;20045;-75
2021/09/16 06:54:50;;;;;;;39.55;17.90;;;14.80;99.90;;;;;;5078791;28;20039;-76
2021/09/16 06:57:18;;;;;;;32.28;17.20;;;14.90;99.90;;;;;;5090777;28;20093;-76
2021/09/16 06:59:45;;;;;;;30.15;15.32;;;14.90;99.90;;;;;;5075376;28;20146;-76
2021/09/16 07:02:12;;;;;;;35.28;15.95;;;14.90;99.90;;;;;;5076890;28;20491;-77
2021/09/16 07:04:39;;;;;;;26.00;15.57;;;15.00;99.90;;;;;;5079680;28;20048;-77
2021/09/16 07:07:10;;;;;;;24.95;14.20;;;15.10;99.90;;;;;;5079233;28;20037;-77
2021/09/16 07:09:37;;;;;;;23.48;12.10;;;15.10;99.90;;;;;;5079688;28;20048;-76
2021/09/16 07:12:05;;;;;;;16.30;9.60;;;15.20;99.90;;;;;;5075757;28;20044;-76
2021/09/16 07:14:32;;;;;;;17.55;9.70;;;15.30;99.90;;;;;;5074939;28;20059;-77
2021/09/16 07:17:00;;;;;;;17.48;10.38;;;15.30;99.90;;;;;;5078861;28;20049;-77
2021/09/16 07:19:27;;;;;;;17.63;9.35;;;15.40;99.90;;;;;;5078780;28;20464;-76
2021/09/16 07:21:55;;;;;;;18.05;8.40;;;15.40;99.90;;;;;;5079435;28;20037;-76
2021/09/16 07:24:22;;;;;;;15.55;8.32;;;15.50;99.90;;;;;;5077911;28;20442;-76
2021/09/16 07:26:52;;;;;;;12.32;7.28;;;15.60;99.90;;;;;;5074416;28;20048;-76
2021/09/16 07:29:22;;;;;;;12.57;7.22;;;15.60;99.90;;;;;;5075362;28;20059;-76
2021/09/16 07:31:51;;;;;;;12.27;6.25;;;15.70;99.90;;;;;;5079023;28;20166;-77
2021/09/16 07:34:19;;;;;;;;;;;15.70;99.90;;;;;;5080730;28;20044;-77
2021/09/16 07:36:47;;;;;;;8.70;3.33;;;15.80;99.90;;;;;;5079477;28;19920;-77
2021/09/16 07:39:15;;;;;;;7.63;3.55;;;15.90;99.90;;;;;;5068959;28;20040;-76
2021/09/16 07:41:43;;;;;;;7.47;3.05;;;15.90;99.90;;;;;;5089097;28;20392;-76
2021/09/16 07:44:10;;;;;;;7.70;3.28;;;16.00;99.90;;;;;;5076589;28;20362;-77
2021/09/16 07:46:37;;;;;;;7.53;2.88;;;16.10;99.90;;;;;;5084001;28;20380;-77
2021/09/16 07:49:04;;;;;;;3.25;1.83;;;16.20;99.90;;;;;;5085095;28;20094;-76
2021/09/16 07:51:31;;;;;;;7.15;1.98;;;16.10;99.90;;;;;;5079453;28;20054;-76
2021/09/16 07:53:59;;;;;;;3.67;1.67;;;16.20;99.90;;;;;;5075105;28;20047;-76
2021/09/16 07:56:26;;;;;;;6.82;2.15;;;16.40;99.90;;;;;;5074157;28;20052;-77
2021/09/16 07:58:53;;;;;;;5.80;2.15;;;16.40;99.90;;;;;;5103025;28;20051;-76
2021/09/16 08:01:20;;;;;;;5.72;1.88;;;16.50;99.90;;;;;;5085338;28;20044;-75
2021/09/16 08:03:47;;;;;;;4.20;1.52;;;16.60;99.90;;;;;;5087533;28;20494;-76
2021/09/16 08:06:16;;;;;;;7.03;1.83;;;16.70;99.90;;;;;;5076377;28;20039;-76
2021/09/16 08:08:46;;;;;;;7.00;2.05;;;16.80;99.90;;;;;;5074155;28;20097;-76
2021/09/16 08:11:13;;;;;;;5.90;1.75;;;16.90;99.90;;;;;;5075806;28;20122;-76
2021/09/16 08:13:40;;;;;;;4.70;2.15;;;17.00;99.90;;;;;;5084549;28;20052;-75
2021/09/16 08:16:08;;;;;;;5.85;1.60;;;17.10;99.90;;;;;;5083683;28;20040;-76
2021/09/16 08:18:36;;;;;;;4.53;1.48;;;17.10;99.90;;;;;;5078788;28;20052;-77
2021/09/16 08:21:03;;;;;;;4.55;1.77;;;17.20;99.90;;;;;;5074908;28;20059;-76
2021/09/16 08:23:30;;;;;;;6.35;1.40;;;17.20;99.90;;;;;;5061278;28;20044;-77
2021/09/16 08:25:58;;;;;;;3.75;1.23;;;17.20;99.90;;;;;;5064807;28;20041;-75
2021/09/16 08:28:25;;;;;;;5.07;0.93;;;17.40;99.90;;;;;;5061196;28;20374;-77
2021/09/16 08:30:53;;;;;;;4.28;1.10;;;17.50;99.90;;;;;;5058182;28;20053;-77
2021/09/16 08:33:21;;;;;;;4.50;1.17;;;17.60;99.90;;;;;;5056616;28;20052;-77
2021/09/16 08:35:49;;;;;;;3.90;0.90;;;17.60;99.90;;;;;;5053829;28;20048;-76
2021/09/16 08:38:16;;;;;;;3.80;1.02;;;17.70;99.90;;;;;;5055052;28;20045;-77
2021/09/16 08:40:44;;;;;;;3.50;0.80;;;17.80;99.90;;;;;;5058575;28;20045;-77
2021/09/16 08:43:12;;;;;;;6.35;1.30;;;17.80;99.90;;;;;;5057557;28;20033;-76
2021/09/16 08:45:40;;;;;;;5.22;1.08;;;17.80;99.90;;;;;;5057642;28;20056;-77
2021/09/16 08:48:08;;;;;;;3.20;0.90;;;17.90;99.90;;;;;;5073081;28;20111;-77
2021/09/16 08:50:35;;;;;;;5.15;1.08;;;18.00;99.90;;;;;;5058015;28;20053;-76
2021/09/16 08:53:03;;;;;;;2.72;0.75;;;18.00;99.90;;;;;;5069791;28;20047;-76
2021/09/16 08:55:30;;;;;;;3.87;0.83;;;18.00;99.90;;;;;;5064493;28;20041;-77
2021/09/16 08:58:00;;;;;;;3.20;0.60;;;18.00;99.90;;;;;;5062290;28;20296;-77
2021/09/16 09:00:29;;;;;;;3.25;0.90;;;18.20;99.90;;;;;;5061370;28;20051;-77
2021/09/16 09:02:57;;;;;;;3.38;0.73;;;18.30;99.90;;;;;;5057397;28;20357;-75
2021/09/16 09:05:31;;;;;;;1.92;1.05;;;18.20;99.90;;;;;;5057587;28;20076;-75
2021/09/16 09:08:01;;;;;;;4.22;0.85;;;18.30;99.90;;;;;;5068729;28;20045;-76
2021/09/16 09:10:36;;;;;;;3.85;0.80;;;18.40;99.90;;;;;;5064409;28;20049;-75
2021/09/16 09:13:05;;;;;;;4.55;1.35;;;18.40;99.90;;;;;;5061888;28;20045;-76
2021/09/16 09:15:34;;;;;;;3.63;1.00;;;18.50;99.90;;;;;;5061700;28;20049;-76
2021/09/16 09:18:17;;;;;;;3.13;0.80;;;18.50;99.90;;;;;;5058225;28;20048;-76
2021/09/16 09:21:00;;;;;;;2.53;0.90;;;18.60;99.90;;;;;;5056555;28;20049;-75
2021/09/16 09:23:41;;;;;;;4.28;1.13;;;18.60;99.90;;;;;;5069217;28;20051;-75
2021/09/16 09:26:32;;;;;;;2.58;1.00;;;18.60;99.90;;;;;;5088009;28;20044;-76
2021/09/16 09:29:08;;;;;;;3.83;1.00;;;18.60;99.90;;;;;;5068140;28;20079;-75
2021/09/16 09:32:07;;;;;;;2.85;0.85;;;18.70;99.90;;;;;;5071188;28;20049;-76
2021/09/16 09:34:35;;;;;;;2.42;0.70;;;18.70;99.90;;;;;;5061139;28;20464;-76
2021/09/16 09:37:19;;;;;;;2.42;0.55;;;18.90;99.90;;;;;;5061564;28;20052;-75
2021/09/16 09:39:57;;;;;;;4.78;0.60;;;19.00;99.90;;;;;;5057503;28;20048;-75
2021/09/16 09:42:28;;;;;;;2.53;0.50;;;19.00;99.90;;;;;;5072143;28;20496;-76
2021/09/16 09:45:06;;;;;;;1.95;0.68;;;19.10;99.90;;;;;;5055080;28;20385;-75
2021/09/16 09:47:45;;;;;;;2.13;0.60;;;19.20;99.90;;;;;;5066925;28;20052;-76
2021/09/16 09:50:25;;;;;;;2.53;0.50;;;19.20;99.90;;;;;;5068324;28;20061;-75
2021/09/16 09:52:53;;;;;;;1.15;0.45;;;19.20;99.90;;;;;;5061368;28;20378;-75
2021/09/16 09:55:23;;;;;;;;;;;19.30;99.90;;;;;;5060748;28;20041;-76
2021/09/16 09:58:03;;;;;;;3.20;0.40;;;19.30;99.90;;;;;;5057544;28;19920;-75
2021/09/16 10:00:30;;;;;;;2.95;0.55;;;19.40;99.90;;;;;;5067517;28;20047;-76
2021/09/16 10:02:59;;;;;;;4.20;0.70;;;19.40;99.90;;;;;;5072360;28;20048;-75
2021/09/16 10:05:27;;;;;;;;;;;19.40;99.90;;;;;;5056499;28;20115;-76
2021/09/16 10:08:09;;;;;;;3.13;0.70;;;19.50;99.90;;;;;;5076942;28;19925;-75
2021/09/16 10:10:51;;;;;;;3.70;0.60;;;19.50;99.90;;;;;;5085598;28;20051;-75
2021/09/16 10:13:19;;;;;;;2.83;0.60;;;19.50;99.90;;;;;;5084695;28;20380;-76
2021/09/16 10:15:52;;;;;;;4.18;0.70;;;19.60;99.90;;;;;;5080707;28;20055;-76
2021/09/16 10:18:20;;;;;;;1.67;0.40;;;19.60;99.90;;;;;;5078133;28;20044;-76
2021/09/16 10:20:48;;;;;;;2.47;0.50;;;19.70;99.90;;;;;;5075596;28;20060;-76
2021/09/16 10:23:16;;;;;;;4.10;0.77;;;19.70;99.90;;;;;;5077254;28;20477;-76
2021/09/16 10:25:50;;;;;;;1.92;0.50;;;19.80;99.90;;;;;;5080672;28;20052;-76
2021/09/16 10:28:18;;;;;;;3.28;0.55;;;19.80;99.90;;;;;;5079731;28;20044;-75
2021/09/16 10:30:47;;;;;;;1.70;0.40;;;19.80;99.90;;;;;;5080465;28;20040;-76
2021/09/16 10:33:27;;;;;;;1.52;0.30;;;19.80;99.90;;;;;;5078713;28;20282;-75
2021/09/16 10:35:57;;;;;;;2.05;0.63;;;19.80;99.90;;;;;;5075980;28;20052;-76
2021/09/16 10:38:35;;;;;;;2.25;0.47;;;19.80;99.90;;;;;;5088074;28;20055;-76
2021/09/16 10:41:29;;;;;;;1.73;0.32;;;19.90;99.90;;;;;;5087688;28;20055;-76
2021/09/16 10:43:59;;;;;;;1.80;0.30;;;20.00;99.90;;;;;;5108093;28;20049;-75
2021/09/16 10:46:37;;;;;;;1.50;0.57;;;19.90;99.90;;;;;;5088282;28;20551;-76
2021/09/16 10:49:20;;;;;;;1.65;0.40;;;20.00;99.90;;;;;;5087406;28;20056;-76
2021/09/16 10:51:49;;;;;;;0.93;0.30;;;19.90;99.90;;;;;;5061880;28;20048;-75
2021/09/16 10:54:23;;;;;;;1.63;0.47;;;19.90;99.90;;;;;;5057848;28;20570;-77
2021/09/16 10:57:05;;;;;;;1.85;0.45;;;20.00;99.90;;;;;;5064114;28;20068;-76
2021/09/16 10:59:50;;;;;;;0.85;0.30;;;20.00;99.90;;;;;;5065301;28;20055;-75
2021/09/16 11:02:21;;;;;;;2.30;0.40;;;20.20;99.90;;;;;;5065325;28;20048;-76
2021/09/16 11:04:55;;;;;;;2.20;0.57;;;20.20;99.90;;;;;;5067281;28;20044;-76
2021/09/16 11:07:55;;;;;;;2.10;0.35;;;20.20;99.90;;;;;;5055049;28;20069;-76
2021/09/16 11:10:24;;;;;;;1.20;0.28;;;20.20;99.90;;;;;;5066940;28;20045;-76
2021/09/16 11:12:57;;;;;;;0.98;0.20;;;20.20;99.90;;;;;;5070256;28;20041;-75
2021/09/16 11:15:29;;;;;;;1.85;0.32;;;20.30;99.90;;;;;;5067147;28;20056;-76
2021/09/16 11:18:10;;;;;;;1.02;0.28;;;20.20;99.90;;;;;;5068846;28;20043;-76
2021/09/16 11:20:38;;;;;;;1.42;0.43;;;20.30;99.90;;;;;;5074861;28;20060;-76
2021/09/16 11:23:06;;;;;;;0.93;0.40;;;20.30;99.90;;;;;;5068292;28;20052;-76
2021/09/16 11:25:42;;;;;;;2.20;0.47;;;20.30;99.90;;;;;;5072916;28;20056;-76
2021/09/16 11:28:18;;;;;;;3.05;0.50;;;20.40;99.90;;;;;;5070534;28;20425;-76
2021/09/16 11:30:46;;;;;;;;;;;20.40;99.90;;;;;;5068095;28;20055;-75
2021/09/16 11:33:16;;;;;;;2.42;0.40;;;20.50;99.90;;;;;;5057337;28;19928;-75
2021/09/16 11:35:43;;;;;;;3.40;0.45;;;20.50;99.90;;;;;;5072071;28;20053;-76
2021/09/16 11:38:11;;;;;;;1.05;0.40;;;20.60;99.90;;;;;;5070719;28;20052;-76
2021/09/16 11:40:44;;;;;;;2.83;0.70;;;20.70;99.90;;;;;;5060798;28;20060;-75
2021/09/16 11:43:13;;;;;;;2.47;0.50;;;20.90;99.90;;;;;;5066691;28;20048;-75
2021/09/16 11:45:48;;;;;;;3.72;0.65;;;21.00;99.90;;;;;;5070215;28;20045;-75
2021/09/16 11:48:18;;;;;;;3.00;0.57;;;21.00;99.90;;;;;;5082450;28;20074;-76
2021/09/16 11:50:52;;;;;;;1.30;0.50;;;21.20;99.90;;;;;;5063472;28;20045;-75
2021/09/16 11:53:34;;;;;;;1.80;0.40;;;21.20;99.90;;;;;;5066791;28;20107;-75
2021/09/16 11:56:04;;;;;;;1.30;0.40;;;21.30;99.90;;;;;;5065912;28;20052;-75
2021/09/16 11:58:33;;;;;;;5.68;0.60;;;21.20;99.90;;;;;;5082657;28;20052;-75
2021/09/16 12:01:05;;;;;;;2.65;0.35;;;21.10;99.90;;;;;;5087726;28;20040;-75
2021/09/16 12:03:36;;;;;;;1.77;0.30;;;21.10;99.90;;;;;;5084143;28;20069;-76
2021/09/16 12:06:08;;;;;;;2.38;0.40;;;21.20;99.90;;;;;;5089358;28;20044;-75
2021/09/16 12:08:53;;;;;;;1.60;0.50;;;21.30;99.90;;;;;;5073624;28;20048;-76
2021/09/16 12:11:24;;;;;;;2.50;0.40;;;21.30;99.90;;;;;;5074790;28;20404;-75
2021/09/16 12:13:53;;;;;;;1.77;0.55;;;21.30;99.90;;;;;;5078873;28;20048;-75
2021/09/16 12:16:35;;;;;;;3.85;0.50;;;21.20;99.90;;;;;;5078165;28;20045;-76
2021/09/16 12:19:05;;;;;;;1.15;0.40;;;21.30;99.90;;;;;;5078182;28;20098;-76
2021/09/16 12:21:42;;;;;;;1.80;0.45;;;21.20;99.90;;;;;;5078182;28;20048;-76
2021/09/16 12:24:18;;;;;;;1.35;0.40;;;21.20;99.90;;;;;;5075043;28;20396;-75
2021/09/16 12:26:47;;;;;;;1.85;0.20;;;21.10;99.90;;;;;;5074377;28;20048;-75
2021/09/16 12:29:28;;;;;;;1.95;0.35;;;21.10;99.90;;;;;;5075820;28;20044;-76
2021/09/16 12:32:00;;;;;;;3.55;0.40;;;21.00;99.90;;;;;;5078247;28;20045;-75
2021/09/16 12:34:38;;;;;;;1.38;0.32;;;21.10;99.90;;;;;;5078150;28;20047;-76
2021/09/16 12:37:15;;;;;;;1.90;0.40;;;21.10;99.90;;;;;;5077834;28;20048;-76
2021/09/16 12:39:55;;;;;;;2.07;0.50;;;21.20;99.90;;;;;;5078646;28;20052;-75
2021/09/16 12:42:27;;;;;;;4.10;0.50;;;21.10;99.90;;;;;;5076678;28;20380;-75
2021/09/16 12:44:54;;;;;;;1.30;0.45;;;21.00;99.90;;;;;;5072252;28;20483;-76
2021/09/16 12:47:23;;;;;;;0.93;0.35;;;21.00;99.90;;;;;;5089886;28;20046;-75